createdAt,value
2018-10-03T00:00:35.979Z,2.73
2018-10-03T00:03:07.800Z,3.07
2018-10-03T00:05:39.558Z,3.07
2018-10-03T00:08:11.227Z,4.33
2018-10-03T00:10:43.085Z,3.23
2018-10-03T00:13:15.597Z,4.03
2018-10-03T00:15:47.417Z,3.47
2018-10-03T00:18:19.082Z,2.87
2018-10-03T00:20:50.879Z,4.50
2018-10-03T00:23:22.789Z,3.77
2018-10-03T00:25:54.465Z,3.40
2018-10-03T00:28:26.245Z,4.00
2018-10-03T00:30:58.158Z,4.00
2018-10-03T00:33:29.962Z,3.50
2018-10-03T00:36:01.709Z,3.40
2018-10-03T00:38:33.444Z,3.10
2018-10-03T00:41:05.240Z,2.70
2018-10-03T00:43:37.410Z,2.50
2018-10-03T00:46:09.496Z,2.60
2018-10-03T00:48:41.297Z,2.90
2018-10-03T00:51:13.201Z,3.10
2018-10-03T00:53:44.944Z,3.23
2018-10-03T00:56:16.676Z,3.43
2018-10-03T00:58:48.445Z,3.40
2018-10-03T01:01:20.115Z,2.77
2018-10-03T01:03:52.041Z,2.70
2018-10-03T01:06:23.927Z,2.97
2018-10-03T01:08:55.580Z,2.03
2018-10-03T01:11:27.358Z,2.63
2018-10-03T01:13:59.094Z,2.10
2018-10-03T01:16:30.769Z,2.23
2018-10-03T01:19:02.608Z,2.30
2018-10-03T01:21:34.480Z,2.33
2018-10-03T01:24:06.521Z,3.60
2018-10-03T01:26:38.332Z,2.67
2018-10-03T01:29:10.164Z,2.90
2018-10-03T01:31:41.940Z,2.03
2018-10-03T01:34:13.582Z,1.50
2018-10-03T01:36:45.329Z,2.47
2018-10-03T01:39:16.997Z,1.80
2018-10-03T01:41:48.860Z,3.00
2018-10-03T01:44:20.618Z,2.87
2018-10-03T01:46:52.293Z,3.00
2018-10-03T01:49:24.059Z,2.33
2018-10-03T01:51:55.994Z,3.13
2018-10-03T01:54:27.784Z,2.43
2018-10-03T01:56:59.521Z,2.83
2018-10-03T01:59:31.201Z,2.47
2018-10-03T02:02:03.102Z,2.47
2018-10-03T02:04:34.919Z,1.90
2018-10-03T02:07:06.784Z,3.00
2018-10-03T02:09:38.619Z,2.40
2018-10-03T02:12:10.470Z,2.10
2018-10-03T02:14:42.343Z,2.70
2018-10-03T02:17:14.095Z,3.30
2018-10-03T02:19:45.798Z,5.00
2018-10-03T02:22:17.613Z,2.40
2018-10-03T02:24:49.295Z,3.37
2018-10-03T02:27:21.421Z,3.47
2018-10-03T02:29:53.230Z,3.10
2018-10-03T02:32:25.078Z,3.37
2018-10-03T02:34:56.741Z,3.27
2018-10-03T02:37:28.479Z,4.43
2018-10-03T02:40:00.162Z,2.87
2018-10-03T02:42:32.026Z,3.23
2018-10-03T02:45:03.987Z,3.53
2018-10-03T02:47:35.742Z,3.43
2018-10-03T02:50:07.732Z,4.90
2018-10-03T02:52:39.576Z,3.83
2018-10-03T02:55:11.319Z,4.17
2018-10-03T02:57:43.336Z,4.80
2018-10-03T03:00:15.229Z,4.10
2018-10-03T03:02:47.017Z,4.07
2018-10-03T03:05:18.763Z,2.87
2018-10-03T03:07:50.600Z,4.27
2018-10-03T03:10:22.363Z,3.73
2018-10-03T03:12:54.020Z,3.20
2018-10-03T03:15:25.798Z,3.17
2018-10-03T03:17:57.655Z,4.43
2018-10-03T03:20:29.609Z,3.87
2018-10-03T03:23:01.398Z,3.37
2018-10-03T03:25:33.179Z,3.53
2018-10-03T03:28:05.017Z,3.13
2018-10-03T03:30:36.759Z,2.70
2018-10-03T03:33:08.427Z,3.20
2018-10-03T03:35:40.384Z,3.77
2018-10-03T03:38:12.361Z,3.00
2018-10-03T03:40:44.052Z,4.07
2018-10-03T03:43:15.950Z,4.03
2018-10-03T03:45:47.713Z,3.73
2018-10-03T03:48:19.712Z,3.80
2018-10-03T03:50:51.455Z,3.67
2018-10-03T03:53:23.287Z,4.00
2018-10-03T03:55:55.051Z,3.70
2018-10-03T03:58:26.840Z,2.93
2018-10-03T04:00:58.690Z,3.23
2018-10-03T04:03:30.625Z,3.97
2018-10-03T04:06:02.505Z,3.63
2018-10-03T04:08:34.153Z,2.67
2018-10-03T04:11:06.065Z,3.90
2018-10-03T04:13:37.982Z,3.20
2018-10-03T04:16:09.947Z,3.07
2018-10-03T04:18:41.805Z,3.77
2018-10-03T04:21:13.592Z,4.00
2018-10-03T04:23:45.341Z,3.90
2018-10-03T04:26:17.239Z,3.57
2018-10-03T04:28:48.953Z,3.10
2018-10-03T04:31:20.685Z,2.70
2018-10-03T04:33:52.373Z,3.70
2018-10-03T04:36:24.105Z,3.77
2018-10-03T04:38:57.242Z,3.10
2018-10-03T04:41:29.072Z,2.53
2018-10-03T04:44:00.823Z,3.17
2018-10-03T04:46:32.897Z,3.33
2018-10-03T04:49:04.770Z,2.50
2018-10-03T04:51:36.432Z,2.60
2018-10-03T04:54:08.371Z,2.63
2018-10-03T04:56:40.234Z,2.37
2018-10-03T04:59:11.921Z,4.00
2018-10-03T05:01:43.774Z,3.50
2018-10-03T05:04:15.610Z,2.40
2018-10-03T05:06:47.465Z,2.97
2018-10-03T05:09:19.142Z,4.20
2018-10-03T05:11:50.810Z,4.37
2018-10-03T05:14:22.758Z,2.63
2018-10-03T05:16:54.643Z,3.17
2018-10-03T05:19:26.385Z,3.40
2018-10-03T05:21:58.058Z,4.13
2018-10-03T05:24:29.921Z,3.00
2018-10-03T05:27:01.668Z,3.17
2018-10-03T05:29:33.505Z,2.50
2018-10-03T05:32:05.373Z,3.27
2018-10-03T05:34:37.042Z,3.47
2018-10-03T05:37:08.995Z,3.47
2018-10-03T05:39:40.775Z,3.53
2018-10-03T05:42:12.509Z,2.33
2018-10-03T05:44:44.182Z,4.30
2018-10-03T05:47:16.059Z,4.40
2018-10-03T05:49:47.796Z,4.03
2018-10-03T05:52:19.465Z,3.90
2018-10-03T05:54:51.285Z,3.63
2018-10-03T05:57:22.961Z,2.67
2018-10-03T05:59:54.766Z,4.03
2018-10-03T06:02:26.716Z,3.87
2018-10-03T06:04:58.459Z,3.03
2018-10-03T06:07:30.194Z,3.23
2018-10-03T06:10:02.080Z,2.93
2018-10-03T06:12:34.159Z,2.70
2018-10-03T06:15:06.495Z,3.17
2018-10-03T06:17:38.265Z,3.30
2018-10-03T06:20:10.358Z,2.97
2018-10-03T06:22:42.110Z,2.97
2018-10-03T06:25:14.079Z,2.60
2018-10-03T06:27:45.825Z,3.33
2018-10-03T06:30:17.683Z,4.90
2018-10-03T06:32:49.425Z,6.27
2018-10-03T06:35:21.106Z,4.20
2018-10-03T06:37:52.958Z,4.10
2018-10-03T06:40:24.950Z,5.47
2018-10-03T06:42:56.790Z,9.00
2018-10-03T06:45:28.704Z,9.23
2018-10-03T06:48:00.514Z,5.40
2018-10-03T06:50:32.349Z,4.60
2018-10-03T06:53:04.010Z,3.73
2018-10-03T06:55:35.790Z,3.93
2018-10-03T06:58:07.529Z,2.70
2018-10-03T07:00:39.492Z,3.73
2018-10-03T07:03:11.154Z,3.30
2018-10-03T07:05:42.867Z,3.00
2018-10-03T07:08:14.762Z,2.83
2018-10-03T07:10:46.735Z,2.30
2018-10-03T07:13:18.393Z,3.03
2018-10-03T07:15:50.212Z,8.90
2018-10-03T07:18:22.042Z,3.50
2018-10-03T07:20:53.779Z,9.97
2018-10-03T07:23:25.564Z,6.50
2018-10-03T07:25:57.555Z,8.17
2018-10-03T07:28:29.466Z,6.93
2018-10-03T07:31:01.146Z,3.93
2018-10-03T07:33:33.044Z,3.83
2018-10-03T07:36:05.143Z,5.10
2018-10-03T07:38:36.901Z,5.43
2018-10-03T07:41:08.807Z,6.07
2018-10-03T07:43:40.594Z,5.00
2018-10-03T07:46:12.517Z,6.20
2018-10-03T07:48:44.241Z,5.00
2018-10-03T07:51:16.022Z,4.60
2018-10-03T07:53:47.770Z,4.17
2018-10-03T07:56:19.724Z,4.47
2018-10-03T07:58:51.479Z,4.40
2018-10-03T08:01:23.270Z,2.80
2018-10-03T08:03:55.215Z,3.30
2018-10-03T08:06:26.869Z,4.23
2018-10-03T08:08:58.539Z,3.67
2018-10-03T08:11:30.389Z,3.20
2018-10-03T08:14:02.171Z,2.50
2018-10-03T08:16:34.127Z,2.47
2018-10-03T08:19:06.008Z,2.53
2018-10-03T08:21:37.738Z,2.83
2018-10-03T08:24:09.742Z,2.87
2018-10-03T08:26:41.581Z,3.67
2018-10-03T08:29:13.321Z,3.73
2018-10-03T08:31:45.270Z,2.23
2018-10-03T08:34:17.169Z,2.53
2018-10-03T08:36:49.031Z,2.90
2018-10-03T08:39:20.791Z,3.53
2018-10-03T08:41:52.544Z,3.33
2018-10-03T08:44:24.529Z,4.03
2018-10-03T08:46:56.251Z,2.57
2018-10-03T08:49:28.129Z,3.13
2018-10-03T08:51:59.912Z,2.93
2018-10-03T08:54:31.729Z,3.53
2018-10-03T08:57:03.559Z,2.47
2018-10-03T08:59:35.369Z,2.03
2018-10-03T09:02:16.902Z,2.37
2018-10-03T09:04:58.308Z,2.40
2018-10-03T09:07:32.047Z,3.60
2018-10-03T09:10:03.993Z,2.30
2018-10-03T09:12:35.673Z,2.10
2018-10-03T09:15:07.632Z,4.07
2018-10-03T09:17:39.673Z,3.40
2018-10-03T09:20:11.435Z,3.40
2018-10-03T09:22:43.097Z,2.60
2018-10-03T09:25:14.937Z,2.50
2018-10-03T09:27:46.744Z,2.53
2018-10-03T09:30:18.580Z,2.60
2018-10-03T09:32:50.688Z,2.67
2018-10-03T09:35:22.493Z,2.27
2018-10-03T09:37:54.562Z,1.93
2018-10-03T09:40:26.342Z,2.30
2018-10-03T09:42:58.086Z,3.10
2018-10-03T09:45:29.835Z,2.60
2018-10-03T09:48:01.701Z,2.43
2018-10-03T09:50:33.485Z,2.93
2018-10-03T09:53:05.229Z,2.20
2018-10-03T09:55:37.076Z,2.03
2018-10-03T09:58:09.090Z,1.80
2018-10-03T10:00:45.736Z,3.00
2018-10-03T10:03:17.709Z,3.30
2018-10-03T10:05:49.459Z,1.60
2018-10-03T10:08:21.302Z,1.70
2018-10-03T10:10:53.088Z,3.90
2018-10-03T10:13:24.825Z,4.03
2018-10-03T10:15:56.590Z,4.10
2018-10-03T10:18:28.363Z,3.27
2018-10-03T10:21:00.200Z,2.97
2018-10-03T10:23:31.975Z,2.63
2018-10-03T10:26:03.946Z,2.97
2018-10-03T10:28:35.688Z,2.40
2018-10-03T10:31:07.565Z,2.60
2018-10-03T10:33:39.390Z,2.03
2018-10-03T10:36:11.065Z,2.80
2018-10-03T10:38:42.744Z,5.77
2018-10-03T10:41:14.821Z,3.87
2018-10-03T10:43:46.433Z,2.90
2018-10-03T10:46:18.321Z,3.50
2018-10-03T10:48:50.157Z,2.53
2018-10-03T10:51:21.838Z,2.50
2018-10-03T10:53:53.679Z,3.10
2018-10-03T10:56:25.430Z,3.37
2018-10-03T10:58:57.111Z,2.20
2018-10-03T11:01:28.970Z,3.07
2018-10-03T11:04:00.801Z,3.50
2018-10-03T11:06:32.689Z,2.80
2018-10-03T11:09:05.310Z,2.17
2018-10-03T11:11:37.066Z,1.57
2018-10-03T11:14:09.051Z,2.13
2018-10-03T11:16:40.753Z,2.20
2018-10-03T11:19:12.690Z,2.07
2018-10-03T11:21:44.484Z,2.90
2018-10-03T11:24:16.509Z,2.30
2018-10-03T11:26:48.276Z,2.70
2018-10-03T11:29:20.146Z,2.60
2018-10-03T11:31:51.931Z,2.03
2018-10-03T11:34:23.675Z,3.10
2018-10-03T11:36:55.451Z,2.40
2018-10-03T11:39:27.317Z,3.60
2018-10-03T11:41:59.153Z,2.93
2018-10-03T11:44:31.006Z,2.73
2018-10-03T11:47:02.980Z,2.57
2018-10-03T11:49:34.762Z,2.90
2018-10-03T11:52:06.706Z,2.53
2018-10-03T11:54:38.581Z,2.20
2018-10-03T11:57:10.822Z,2.27
2018-10-03T11:59:42.487Z,2.10
2018-10-03T12:02:14.150Z,2.60
2018-10-03T12:04:45.925Z,2.77
2018-10-03T12:07:17.786Z,2.30
2018-10-03T12:09:49.664Z,2.10
2018-10-03T12:12:21.577Z,2.43
2018-10-03T12:14:53.441Z,2.20
2018-10-03T12:17:25.226Z,2.80
2018-10-03T12:19:57.062Z,2.37
2018-10-03T12:22:28.721Z,2.97
2018-10-03T12:25:00.521Z,2.87
2018-10-03T12:27:32.370Z,3.13
2018-10-03T12:30:04.333Z,2.20
2018-10-03T12:32:36.178Z,2.77
2018-10-03T12:35:07.947Z,3.07
2018-10-03T12:37:39.777Z,3.27
2018-10-03T12:40:11.573Z,1.93
2018-10-03T12:42:43.302Z,2.43
2018-10-03T12:45:15.118Z,2.50
2018-10-03T12:47:46.841Z,2.73
2018-10-03T12:50:18.729Z,1.80
2018-10-03T12:52:50.382Z,1.70
2018-10-03T12:55:22.434Z,2.37
2018-10-03T12:57:54.173Z,2.33
2018-10-03T13:00:33.733Z,2.67
2018-10-03T13:03:05.675Z,2.40
2018-10-03T13:05:37.525Z,2.27
2018-10-03T13:08:09.301Z,2.30
2018-10-03T13:10:40.972Z,2.27
2018-10-03T13:13:12.836Z,2.73
2018-10-03T13:15:44.495Z,2.60
2018-10-03T13:18:16.322Z,2.00
2018-10-03T13:20:48.022Z,2.47
2018-10-03T13:23:19.853Z,2.37
2018-10-03T13:25:51.834Z,2.40
2018-10-03T13:28:23.427Z,2.00
2018-10-03T13:30:55.333Z,2.13
2018-10-03T13:33:27.074Z,1.90
2018-10-03T13:35:58.866Z,1.63
2018-10-03T13:38:30.619Z,1.30
2018-10-03T13:41:02.505Z,3.23
2018-10-03T13:43:34.351Z,2.70
2018-10-03T13:46:06.318Z,2.47
2018-10-03T13:48:38.062Z,2.43
2018-10-03T13:51:10.019Z,2.60
2018-10-03T13:53:41.675Z,2.30
2018-10-03T13:56:13.345Z,2.70
2018-10-03T13:58:45.081Z,2.23
2018-10-03T14:01:16.742Z,1.90
2018-10-03T14:03:48.499Z,2.70
2018-10-03T14:06:20.250Z,1.83
2018-10-03T14:08:51.920Z,1.60
2018-10-03T14:11:23.694Z,1.87
2018-10-03T14:13:55.531Z,1.80
2018-10-03T14:16:27.423Z,1.87
2018-10-03T14:18:59.178Z,1.67
2018-10-03T14:21:31.109Z,2.60
2018-10-03T14:24:02.786Z,2.33
2018-10-03T14:26:34.534Z,1.93
2018-10-03T14:29:06.304Z,1.90
2018-10-03T14:31:38.166Z,1.90
2018-10-03T14:34:10.033Z,2.30
2018-10-03T14:36:41.869Z,2.00
2018-10-03T14:39:13.765Z,2.30
2018-10-03T14:41:45.533Z,2.40
2018-10-03T14:44:17.374Z,1.43
2018-10-03T14:46:49.365Z,2.60
2018-10-03T14:49:21.194Z,2.20
2018-10-03T14:51:52.953Z,2.23
2018-10-03T14:54:24.882Z,2.07
2018-10-03T14:56:56.661Z,1.70
2018-10-03T14:59:28.426Z,1.40
2018-10-03T15:02:00.187Z,1.93
2018-10-03T15:04:31.863Z,1.63
2018-10-03T15:07:03.798Z,1.40
2018-10-03T15:09:35.485Z,1.63
2018-10-03T15:12:07.283Z,1.20
2018-10-03T15:14:39.081Z,1.10
2018-10-03T15:17:10.861Z,1.23
2018-10-03T15:19:42.693Z,2.70
2018-10-03T15:22:14.493Z,2.47
2018-10-03T15:24:46.265Z,1.93
2018-10-03T15:27:18.108Z,1.50
2018-10-03T15:29:49.786Z,1.83
2018-10-03T15:32:21.597Z,2.47
2018-10-03T15:34:53.257Z,2.63
2018-10-03T15:37:25.026Z,2.10
2018-10-03T15:39:56.876Z,2.50
2018-10-03T15:42:28.697Z,2.13
2018-10-03T15:45:00.522Z,2.17
2018-10-03T15:47:32.273Z,2.63
2018-10-03T15:50:04.195Z,2.53
2018-10-03T15:52:36.004Z,2.20
2018-10-03T15:55:07.966Z,2.60
2018-10-03T15:57:39.813Z,1.30
2018-10-03T16:00:11.592Z,1.63
2018-10-03T16:02:43.337Z,2.83
2018-10-03T16:05:15.372Z,1.27
2018-10-03T16:07:47.147Z,1.90
2018-10-03T16:10:19.086Z,1.77
2018-10-03T16:12:50.856Z,1.90
2018-10-03T16:15:22.754Z,2.20
2018-10-03T16:17:55.129Z,1.90
2018-10-03T16:20:26.853Z,2.17
2018-10-03T16:22:58.542Z,2.50
2018-10-03T16:25:30.373Z,2.57
2018-10-03T16:28:02.269Z,2.60
2018-10-03T16:30:33.911Z,2.20
2018-10-03T16:33:05.758Z,1.60
2018-10-03T16:35:37.470Z,1.77
2018-10-03T16:38:09.186Z,2.53
2018-10-03T16:40:41.138Z,2.97
2018-10-03T16:43:12.794Z,2.40
2018-10-03T16:45:44.468Z,2.20
2018-10-03T16:48:16.304Z,2.47
2018-10-03T16:50:47.970Z,7.07
2018-10-03T16:53:19.650Z,7.30
2018-10-03T16:55:51.583Z,6.33
2018-10-03T16:58:23.249Z,5.63
2018-10-03T17:00:55.017Z,3.77
2018-10-03T17:03:26.863Z,3.23
2018-10-03T17:05:58.521Z,2.40
2018-10-03T17:08:30.194Z,2.13
2018-10-03T17:11:02.145Z,2.37
2018-10-03T17:13:33.927Z,2.10
2018-10-03T17:16:05.669Z,2.60
2018-10-03T17:18:37.430Z,2.10
2018-10-03T17:21:09.403Z,1.80
2018-10-03T17:23:41.170Z,2.37
2018-10-03T17:26:12.997Z,2.13
2018-10-03T17:28:44.692Z,3.13
2018-10-03T17:31:16.437Z,2.20
2018-10-03T17:33:48.190Z,2.17
2018-10-03T17:36:19.944Z,2.47
2018-10-03T17:38:51.922Z,2.30
2018-10-03T17:41:23.756Z,2.43
2018-10-03T17:43:55.428Z,2.23
2018-10-03T17:46:27.174Z,2.37
2018-10-03T17:48:59.099Z,2.57
2018-10-03T17:51:30.805Z,2.50
2018-10-03T17:54:02.551Z,2.33
2018-10-03T17:56:34.318Z,2.13
2018-10-03T17:59:06.309Z,2.57
2018-10-03T18:01:41.933Z,2.40
2018-10-03T18:04:13.711Z,3.20
2018-10-03T18:06:45.558Z,2.57
2018-10-03T18:09:17.293Z,2.77
2018-10-03T18:11:49.082Z,4.30
2018-10-03T18:14:21.043Z,4.93
2018-10-03T18:16:52.789Z,3.87
2018-10-03T18:19:24.579Z,4.23
2018-10-03T18:21:56.350Z,3.90
2018-10-03T18:24:28.166Z,3.27
2018-10-03T18:27:00.061Z,3.23
2018-10-03T18:29:32.021Z,3.60
2018-10-03T18:32:03.826Z,3.23
2018-10-03T18:34:35.644Z,3.50
2018-10-03T18:37:07.519Z,3.40
2018-10-03T18:39:39.269Z,2.67
2018-10-03T18:42:11.110Z,2.70
2018-10-03T18:44:43.052Z,2.60
2018-10-03T18:47:14.844Z,2.70
2018-10-03T18:49:46.597Z,2.17
2018-10-03T18:52:18.461Z,2.00
2018-10-03T18:54:50.214Z,2.70
2018-10-03T18:57:21.988Z,3.27
2018-10-03T18:59:53.809Z,2.80
2018-10-03T19:02:25.594Z,2.80
2018-10-03T19:04:57.355Z,3.50
2018-10-03T19:07:29.193Z,4.53
2018-10-03T19:10:00.857Z,4.77
2018-10-03T19:12:32.614Z,5.70
2018-10-03T19:15:04.934Z,5.43
2018-10-03T19:17:36.845Z,4.20
2018-10-03T19:20:08.745Z,3.20
2018-10-03T19:22:40.600Z,4.10
2018-10-03T19:25:12.633Z,4.83
2018-10-03T19:27:44.293Z,3.40
2018-10-03T19:30:15.961Z,4.50
2018-10-03T19:32:47.806Z,3.33
2018-10-03T19:35:19.558Z,3.30
2018-10-03T19:37:51.202Z,3.40
2018-10-03T19:40:22.974Z,2.57
2018-10-03T19:42:54.791Z,3.10
2018-10-03T19:45:26.618Z,3.33
2018-10-03T19:47:58.623Z,3.87
2018-10-03T19:50:30.435Z,2.83
2018-10-03T19:53:02.036Z,2.97
2018-10-03T19:55:33.757Z,2.60
2018-10-03T19:58:05.591Z,3.20
2018-10-03T20:00:37.390Z,2.60
2018-10-03T20:03:09.134Z,3.40
2018-10-03T20:05:41.009Z,3.40
2018-10-03T20:08:12.870Z,2.67
2018-10-03T20:10:44.697Z,2.20
2018-10-03T20:13:16.449Z,2.63
2018-10-03T20:15:48.318Z,3.17
2018-10-03T20:18:20.111Z,3.00
2018-10-03T20:20:52.152Z,3.37
2018-10-03T20:23:23.913Z,4.20
2018-10-03T20:25:56.145Z,3.30
2018-10-03T20:28:28.015Z,3.37
2018-10-03T20:30:59.830Z,3.20
2018-10-03T20:33:31.904Z,2.97
2018-10-03T20:36:03.657Z,3.70
2018-10-03T20:38:35.858Z,2.97
2018-10-03T20:41:07.637Z,2.73
2018-10-03T20:43:39.416Z,3.47
2018-10-03T20:46:11.082Z,3.17
2018-10-03T20:48:42.922Z,3.00
2018-10-03T20:51:14.651Z,3.03
2018-10-03T20:53:51.051Z,2.60
2018-10-03T20:56:22.933Z,2.90
2018-10-03T20:58:54.591Z,2.40
2018-10-03T21:01:26.230Z,2.97
2018-10-03T21:03:58.239Z,3.03
2018-10-03T21:06:33.363Z,4.17
2018-10-03T21:09:06.950Z,2.80
2018-10-03T21:11:38.653Z,3.63
2018-10-03T21:14:10.468Z,3.17
2018-10-03T21:16:42.205Z,3.03
2018-10-03T21:19:13.868Z,4.77
2018-10-03T21:21:45.541Z,4.77
2018-10-03T21:24:17.526Z,4.23
2018-10-03T21:26:49.381Z,4.60
2018-10-03T21:29:21.117Z,4.80
2018-10-03T21:31:52.880Z,6.17
2018-10-03T21:34:24.524Z,5.57
2018-10-03T21:36:56.189Z,5.30
2018-10-03T21:39:27.932Z,5.10
2018-10-03T21:41:59.594Z,4.10
2018-10-03T21:44:31.257Z,3.67
2018-10-03T21:47:03.009Z,4.90
2018-10-03T21:49:34.932Z,4.63
2018-10-03T21:52:06.645Z,5.30
2018-10-03T21:54:38.420Z,5.17
2018-10-03T21:57:10.154Z,6.03
2018-10-03T21:59:41.822Z,4.80
2018-10-03T22:02:13.664Z,5.40
2018-10-03T22:04:45.410Z,3.80
2018-10-03T22:07:17.096Z,4.40
2018-10-03T22:09:48.834Z,4.23
2018-10-03T22:12:20.493Z,4.40
2018-10-03T22:14:52.170Z,3.73
2018-10-03T22:17:23.945Z,4.20
2018-10-03T22:19:57.321Z,5.03
2018-10-03T22:22:29.028Z,4.40
2018-10-03T22:25:00.890Z,3.73
2018-10-03T22:27:32.679Z,4.50
2018-10-03T22:30:04.686Z,5.60
2018-10-03T22:32:36.504Z,4.67
2018-10-03T22:35:08.483Z,3.73
2018-10-03T22:37:40.151Z,3.80
2018-10-03T22:40:11.801Z,3.07
2018-10-03T22:42:43.642Z,3.60
2018-10-03T22:45:15.524Z,5.07
2018-10-03T22:47:47.251Z,4.87
2018-10-03T22:50:19.164Z,5.00
2018-10-03T22:52:51.014Z,3.93
2018-10-03T22:55:22.847Z,3.90
2018-10-03T22:57:54.610Z,3.90
2018-10-03T23:00:26.286Z,4.53
2018-10-03T23:02:58.133Z,4.47
2018-10-03T23:05:29.884Z,4.13
2018-10-03T23:08:01.645Z,3.23
2018-10-03T23:10:33.515Z,3.97
2018-10-03T23:13:05.299Z,3.77
2018-10-03T23:15:37.153Z,5.07
2018-10-03T23:18:09.110Z,4.30
2018-10-03T23:20:41.060Z,4.10
2018-10-03T23:23:12.844Z,3.30
2018-10-03T23:25:44.580Z,4.93
2018-10-03T23:28:16.329Z,4.03
2018-10-03T23:30:47.993Z,4.00
2018-10-03T23:33:19.676Z,4.37
2018-10-03T23:35:51.542Z,5.00
2018-10-03T23:38:23.270Z,4.90
2018-10-03T23:40:55.047Z,5.03
2018-10-03T23:43:26.886Z,5.47
2018-10-03T23:45:58.667Z,4.13
2018-10-03T23:48:30.541Z,4.67
2018-10-03T23:51:02.393Z,4.37
2018-10-03T23:53:34.273Z,4.27
2018-10-03T23:56:06.125Z,3.90
2018-10-03T23:58:37.957Z,3.87
